Time;durP1;ratioP1;P1;durP2;ratioP2;P2;SDS_P1;SDS_P2;PMS_P1;PMS_P2;Temp;Humidity;BMP_temperature;BMP_pressure;BME280_temperature;BME280_humidity;BME280_pressure;Samples;Min_cycle;Max_cycle;Signal;HPM_P1;HPM_P2
2022/08/14 00:01:37;;;;;;;8.00;4.90;;;;;;;22.77;46.55;101044.81;5265323;28;20038;-69
2022/08/14 00:04:09;;;;;;;8.25;5.25;;;;;;;22.79;46.66;101041.97;5262316;28;20029;-69
2022/08/14 00:06:40;;;;;;;7.80;5.32;;;;;;;22.60;46.89;101036.78;5274996;28;20021;-68
2022/08/14 00:09:11;;;;;;;11.73;5.78;;;;;;;22.42;47.51;101036.13;5275819;28;20059;-68
2022/08/14 00:11:43;;;;;;;10.68;5.55;;;;;;;22.52;47.38;101030.59;5275886;28;20020;-68
2022/08/14 00:14:15;;;;;;;11.25;6.32;;;;;;;22.46;47.26;101027.59;5276262;28;20032;-70
2022/08/14 00:16:47;;;;;;;12.68;5.72;;;;;;;22.49;47.30;101023.78;5275910;28;20762;-68
2022/08/14 00:19:18;;;;;;;12.30;5.70;;;;;;;22.41;47.55;101023.78;5275102;28;20064;-69
2022/08/14 00:21:51;;;;;;;10.80;5.88;;;;;;;22.33;47.41;101021.94;5265175;28;20032;-69
2022/08/14 00:24:22;;;;;;;10.95;6.30;;;;;;;22.11;48.25;101022.41;5273350;28;20028;-69
2022/08/14 00:26:54;;;;;;;12.07;6.00;;;;;;;22.07;48.01;101014.91;5271624;28;20029;-69
2022/08/14 00:29:25;;;;;;;16.45;6.30;;;;;;;22.10;48.17;101007.41;5264587;28;20089;-69
2022/08/14 00:31:57;;;;;;;10.15;6.65;;;;;;;21.95;48.56;101014.41;5274785;28;20032;-69
2022/08/14 00:34:28;;;;;;;10.40;6.35;;;;;;;21.91;48.75;101002.38;5275934;28;20032;-69
2022/08/14 00:36:59;;;;;;;9.68;5.78;;;;;;;21.93;48.90;101003.06;5275503;28;20082;-69
2022/08/14 00:39:31;;;;;;;10.18;5.68;;;;;;;21.88;49.12;101000.88;5275410;28;20420;-69
2022/08/14 00:42:04;;;;;;;8.63;5.15;;;;;;;21.75;49.47;100998.66;5274288;28;20046;-69
2022/08/14 00:44:35;;;;;;;11.43;5.82;;;;;;;21.71;49.15;100990.13;5275450;28;20263;-69
2022/08/14 00:47:07;;;;;;;10.45;6.53;;;;;;;21.45;49.67;100976.91;5274537;28;20059;-69
2022/08/14 00:49:38;;;;;;;9.23;5.77;;;;;;;21.53;49.32;100984.94;5275631;28;20059;-69
2022/08/14 00:52:11;;;;;;;6.40;5.80;;;;;;;21.59;49.14;100988.78;5275636;28;20052;-68
2022/08/14 00:54:44;;;;;;;7.65;5.68;;;;;;;21.66;49.97;100979.13;5275101;28;20070;-68
2022/08/14 00:57:17;;;;;;;6.75;5.45;;;;;;;21.73;49.07;100984.69;5261888;28;20028;-69
2022/08/14 00:59:48;;;;;;;12.13;5.63;;;;;;;21.32;50.05;100966.72;5254100;28;20033;-68
2022/08/14 01:02:23;;;;;;;12.20;6.10;;;;;;;21.48;49.99;100972.09;5253240;28;20025;-68
2022/08/14 01:04:57;;;;;;;10.60;5.43;;;;;;;21.45;50.04;100969.75;5272115;23;20049;-68
2022/08/14 01:07:28;;;;;;;8.90;5.57;;;;;;;21.35;50.38;100966.38;5262733;28;20033;-69
2022/08/14 01:10:03;;;;;;;7.97;5.43;;;;;;;21.14;51.00;100959.63;5253058;28;20055;-68
2022/08/14 01:12:35;;;;;;;11.17;4.90;;;;;;;21.11;50.61;100952.81;5267411;28;20035;-69
2022/08/14 01:15:07;;;;;;;13.20;5.20;;;;;;;21.15;50.66;100956.00;5275237;28;20187;-68
2022/08/14 01:23:19;;;;;;;9.77;5.80;;;;;;;21.02;51.16;100945.78;5274984;28;20067;-68
2022/08/14 01:25:50;;;;;;;7.80;5.03;;;;;;;21.02;51.27;100941.28;5272542;28;20056;-68
2022/08/14 01:28:23;;;;;;;6.43;4.80;;;;;;;21.17;50.81;100932.72;5273751;28;20031;-68
2022/08/14 01:30:56;;;;;;;8.63;5.43;;;;;;;21.10;51.17;100948.47;5273062;28;20512;-68
2022/08/14 01:33:29;;;;;;;6.55;5.05;;;;;;;21.09;51.08;100948.63;5273817;28;20020;-68
2022/08/14 01:36:00;;;;;;;6.30;5.13;;;;;;;20.91;51.46;100946.84;5272911;28;20021;-68
2022/08/14 01:38:33;;;;;;;5.40;4.60;;;;;;;20.90;52.10;100947.84;5274231;28;20101;-68
2022/08/14 01:41:09;;;;;;;8.73;5.50;;;;;;;20.90;52.00;100942.53;5274839;28;20103;-68
2022/08/14 01:43:53;;;;;;;8.87;4.93;;;;;;;20.78;52.13;100950.78;5274384;28;20008;-68
2022/08/14 01:46:24;;;;;;;9.15;5.22;;;;;;;21.04;51.23;100949.13;5273310;28;20029;-68
2022/08/14 01:48:56;;;;;;;10.77;5.17;;;;;;;21.06;51.37;100946.28;5274578;28;20525;-69
2022/08/14 01:51:29;;;;;;;6.43;5.23;;;;;;;21.00;51.37;100953.06;5274592;28;20065;-69
2022/08/14 01:54:05;;;;;;;7.67;4.47;;;;;;;21.10;51.11;100952.97;5274248;28;20028;-69
2022/08/14 01:56:43;;;;;;;9.40;5.47;;;;;;;20.54;53.33;100960.25;5266024;28;20088;-69
2022/08/14 01:59:18;;;;;;;10.93;5.37;;;;;;;20.65;53.05;100948.53;5251819;28;20028;-69
2022/08/14 02:01:52;;;;;;;9.83;5.60;;;;;;;20.42;53.92;100941.06;5253161;28;20027;-69
2022/08/14 02:04:30;;;;;;;9.25;5.63;;;;;;;20.35;54.19;100933.88;5254621;28;20051;-69
2022/08/14 02:07:03;;;;;;;7.53;6.07;;;;;;;20.57;53.39;100931.69;5268174;28;20052;-69
2022/08/14 02:09:37;;;;;;;14.83;6.23;;;;;;;20.42;53.75;100935.72;5273855;28;20384;-69
2022/08/14 02:12:09;;;;;;;8.77;5.50;;;;;;;20.44;53.53;100932.91;5274218;28;20086;-69
2022/08/14 02:14:40;;;;;;;10.50;5.60;;;;;;;20.66;53.14;100934.25;5264106;28;20029;-69
2022/08/14 02:17:12;;;;;;;8.13;4.80;;;;;;;20.57;52.75;100937.84;5268669;28;20075;-69
2022/08/14 02:19:43;;;;;;;7.27;5.17;;;;;;;20.65;52.71;100927.25;5273310;28;20020;-69
2022/08/14 02:22:17;;;;;;;9.40;5.37;;;;;;;20.46;53.69;100928.28;5273546;28;20023;-70
2022/08/14 02:24:50;;;;;;;9.20;5.07;;;;;;;20.39;54.05;100924.56;5273594;28;20021;-68
2022/08/14 02:27:21;;;;;;;10.40;5.50;;;;;;;20.27;54.38;100924.84;5273734;28;20032;-69
2022/08/14 02:29:54;;;;;;;10.90;5.27;;;;;;;20.30;54.59;100932.50;5273717;28;20058;-69
2022/08/14 02:32:25;;;;;;;13.65;5.93;;;;;;;20.24;54.32;100929.63;5271874;28;20047;-68
2022/08/14 02:34:59;;;;;;;10.47;5.40;;;;;;;20.18;55.23;100923.09;5273888;28;20013;-68
2022/08/14 02:37:30;;;;;;;17.53;5.67;;;;;;;20.28;54.31;100918.50;5273218;28;20112;-68
2022/08/14 02:40:02;;;;;;;18.57;7.10;;;;;;;20.17;54.87;100911.63;5273657;28;20115;-68
2022/08/14 02:42:33;;;;;;;12.60;6.77;;;;;;;20.22;54.44;100923.63;5272333;28;20353;-69
2022/08/14 02:45:05;;;;;;;12.17;5.70;;;;;;;20.09;55.27;100914.19;5273757;28;20024;-68
2022/08/14 02:47:37;;;;;;;15.40;5.43;;;;;;;20.05;55.33;100920.84;5272591;28;20028;-68
2022/08/14 02:50:08;;;;;;;12.93;6.07;;;;;;;19.97;55.20;100916.22;5273431;28;20094;-68
2022/08/14 02:52:39;;;;;;;20.53;6.50;;;;;;;19.82;55.25;100906.16;5273334;28;20025;-68
2022/08/14 02:55:11;;;;;;;23.53;6.43;;;;;;;20.09;55.02;100916.06;5273035;28;20056;-68
2022/08/14 02:57:42;;;;;;;25.23;7.20;;;;;;;19.92;55.18;100911.38;5255962;28;20021;-69
2022/08/14 03:00:13;;;;;;;20.37;6.77;;;;;;;19.97;54.77;100921.56;5251906;28;20029;-69
2022/08/14 03:02:45;;;;;;;17.87;6.33;;;;;;;19.91;55.11;100908.88;5251847;28;20029;-69
2022/08/14 03:05:17;;;;;;;11.60;5.70;;;;;;;19.63;55.46;100891.19;5252326;28;20128;-68
2022/08/14 03:07:48;;;;;;;11.53;6.30;;;;;;;19.76;55.30;100906.75;5252171;28;20029;-68
2022/08/14 03:10:19;;;;;;;10.50;5.40;;;;;;;19.64;55.74;100898.16;5252710;28;20074;-68
2022/08/14 03:12:51;;;;;;;12.77;6.17;;;;;;;19.56;55.60;100898.94;5250581;28;20550;-68
2022/08/14 03:15:22;;;;;;;8.90;5.77;;;;;;;19.55;55.44;100888.44;5252487;28;20029;-68
2022/08/14 03:17:53;;;;;;;9.07;5.33;;;;;;;19.30;56.06;100890.84;5250947;28;20086;-68
2022/08/14 03:20:27;;;;;;;7.10;5.33;;;;;;;19.63;55.36;100906.28;5252355;28;20029;-68
2022/08/14 03:22:59;;;;;;;7.10;5.20;;;;;;;19.36;56.42;100908.00;5252531;28;20021;-68
2022/08/14 03:25:32;;;;;;;11.03;6.33;;;;;;;19.39;56.37;100905.06;5252019;28;20021;-67
2022/08/14 03:28:06;;;;;;;7.40;4.43;;;;;;;19.44;56.38;100895.63;5252402;28;20025;-68
2022/08/14 03:30:38;;;;;;;9.93;6.07;;;;;;;19.30;56.43;100897.00;5250094;28;20123;-68
2022/08/14 03:33:11;;;;;;;6.80;6.20;;;;;;;19.25;56.60;100896.63;5251623;28;20362;-68
2022/08/14 03:35:42;;;;;;;9.10;5.53;;;;;;;19.25;56.77;100906.38;5251705;28;20021;-68
2022/08/14 03:38:17;;;;;;;8.93;6.17;;;;;;;19.32;56.28;100892.34;5251805;28;20036;-68
2022/08/14 03:40:49;;;;;;;;;;;;;;;19.85;53.72;100880.25;5252253;28;20473;-68
2022/08/14 03:43:20;;;;;;;7.30;5.67;;;;;;;19.18;56.58;100874.28;5252157;28;19912;-68
2022/08/14 03:45:51;;;;;;;6.43;5.80;;;;;;;19.28;56.37;100877.72;5252370;28;20397;-68
2022/08/14 03:48:23;;;;;;;5.90;5.40;;;;;;;19.18;56.81;100884.91;5250969;28;20070;-68
2022/08/14 03:50:54;;;;;;;7.40;6.20;;;;;;;19.14;57.02;100891.47;5252136;28;20071;-69
2022/08/14 03:53:25;;;;;;;10.23;6.43;;;;;;;19.15;56.62;100887.88;5253035;28;20017;-69
2022/08/14 03:55:57;;;;;;;7.83;6.80;;;;;;;18.97;57.50;100883.31;5256019;28;20029;-68
2022/08/14 03:58:31;;;;;;;10.83;6.17;;;;;;;19.03;56.89;100893.31;5255425;28;20029;-68
2022/08/14 04:01:03;;;;;;;9.27;6.65;;;;;;;18.85;58.04;100893.28;5254623;28;20473;-68
2022/08/14 04:03:34;;;;;;;8.23;6.87;;;;;;;18.77;58.10;100883.38;5255665;28;20044;-68
2022/08/14 04:06:10;;;;;;;8.33;6.70;;;;;;;18.90;57.75;100890.16;5254222;28;20037;-68
2022/08/14 04:08:42;;;;;;;8.47;6.20;;;;;;;18.77;57.94;100880.72;5255543;28;20025;-69
2022/08/14 04:11:14;;;;;;;13.13;6.60;;;;;;;18.78;58.15;100881.56;5254909;28;20040;-69
2022/08/14 04:13:47;;;;;;;7.63;6.53;;;;;;;18.63;58.43;100882.03;5255892;28;20028;-68
2022/08/14 04:16:22;;;;;;;9.07;7.47;;;;;;;18.68;58.31;100876.28;5254234;28;20116;-68
2022/08/14 04:18:55;;;;;;;8.67;5.93;;;;;;;18.54;58.86;100881.06;5254463;28;20154;-68
2022/08/14 04:21:28;;;;;;;7.72;6.47;;;;;;;18.67;58.86;100877.25;5254785;28;20029;-68
2022/08/14 04:24:00;;;;;;;10.73;7.10;;;;;;;18.44;59.17;100870.50;5255757;28;20021;-68
2022/08/14 04:26:32;;;;;;;7.27;6.57;;;;;;;18.68;58.72;100878.94;5254776;28;20064;-68
2022/08/14 04:29:03;;;;;;;8.27;7.10;;;;;;;18.45;59.03;100869.50;5254165;28;20614;-68
2022/08/14 04:31:34;;;;;;;12.40;6.77;;;;;;;18.74;58.32;100868.59;5254124;28;20032;-68
2022/08/14 04:34:06;;;;;;;9.97;7.67;;;;;;;18.42;59.36;100861.00;5257368;28;20020;-68
2022/08/14 04:45:07;;;;;;;9.50;7.57;;;;;;;18.38;59.43;100856.00;5275608;28;20057;-68
2022/08/14 04:50:28;;;;;;;9.53;6.90;;;;;;;18.50;59.61;100851.34;5275619;28;20071;-69
2022/08/14 04:53:01;;;;;;;8.50;7.07;;;;;;;18.38;59.68;100845.38;5275754;28;20440;-68
2022/08/14 04:55:33;;;;;;;8.73;7.07;;;;;;;18.32;59.75;100840.66;5275384;28;20021;-68
2022/08/14 04:58:04;;;;;;;9.20;6.27;;;;;;;18.47;59.75;100850.78;5253733;28;20032;-69
2022/08/14 05:00:37;;;;;;;11.97;7.43;;;;;;;18.44;60.02;100845.78;5254660;28;20033;-69
2022/08/14 05:03:09;;;;;;;8.43;6.47;;;;;;;18.37;60.31;100841.06;5253439;28;20051;-69
2022/08/14 05:05:40;;;;;;;8.20;6.67;;;;;;;18.54;59.70;100835.97;5253685;28;20068;-69
2022/08/14 05:08:12;;;;;;;9.53;7.20;;;;;;;18.59;60.08;100838.19;5254114;28;20020;-68
2022/08/14 05:10:49;;;;;;;11.40;7.70;;;;;;;18.62;60.29;100849.34;5254288;28;20032;-69
2022/08/14 05:13:23;;;;;;;8.37;6.73;;;;;;;18.59;60.00;100843.50;5253719;28;20040;-69
2022/08/14 05:15:57;;;;;;;8.77;7.00;;;;;;;18.54;60.52;100838.63;5254086;28;20025;-67
2022/08/14 05:18:32;;;;;;;10.07;7.30;;;;;;;18.53;60.90;100847.59;5253666;28;20025;-68
2022/08/14 05:21:06;;;;;;;10.87;7.63;;;;;;;18.66;60.96;100838.47;5254374;28;20037;-68
2022/08/14 05:23:39;;;;;;;;;;;;;;;19.02;58.11;100838.59;5253995;28;20040;-68
2022/08/14 05:26:17;;;;;;;9.47;6.63;;;;;;;18.70;61.18;100845.13;5254469;28;19939;-68
2022/08/14 05:28:48;;;;;;;10.17;6.53;;;;;;;18.76;60.80;100838.41;5253002;28;20021;-68
2022/08/14 05:31:19;;;;;;;8.37;7.10;;;;;;;18.67;61.44;100835.66;5252913;28;20047;-68
2022/08/14 05:33:52;;;;;;;9.47;7.40;;;;;;;18.65;62.14;100828.81;5254365;28;20020;-68
2022/08/14 05:36:24;;;;;;;7.37;6.67;;;;;;;18.96;60.67;100833.84;5253593;28;20032;-68
2022/08/14 05:38:55;;;;;;;11.67;7.67;;;;;;;18.93;61.42;100837.66;5253832;28;20490;-68
2022/08/14 05:41:27;;;;;;;10.40;8.00;;;;;;;18.92;61.59;100837.78;5253219;28;20100;-68
2022/08/14 05:43:58;;;;;;;8.30;7.37;;;;;;;19.10;61.14;100836.00;5252515;28;20021;-68
2022/08/14 05:46:30;;;;;;;10.57;7.73;;;;;;;19.02;62.27;100833.28;5252657;28;20021;-67
2022/08/14 05:49:01;;;;;;;9.00;7.53;;;;;;;19.19;61.67;100829.00;5253832;28;20040;-68
2022/08/14 05:51:32;;;;;;;9.83;8.20;;;;;;;19.21;61.07;100820.91;5253788;28;20705;-68
2022/08/14 05:54:03;;;;;;;8.60;7.73;;;;;;;19.29;61.48;100828.94;5255760;28;20032;-68
2022/08/14 05:56:35;;;;;;;8.63;7.57;;;;;;;19.29;61.65;100828.09;5255700;28;20036;-68
2022/08/14 05:59:06;;;;;;;11.33;7.83;;;;;;;19.28;62.34;100827.28;5253456;28;20032;-68
2022/08/14 06:01:37;;;;;;;10.13;7.93;;;;;;;19.38;62.14;100831.66;5271836;28;20024;-68
2022/08/14 06:04:09;;;;;;;9.63;8.23;;;;;;;19.42;61.61;100827.72;5262833;28;20024;-68
2022/08/14 06:06:40;;;;;;;10.83;7.77;;;;;;;19.49;61.54;100817.34;5270465;28;20027;-67
2022/08/14 06:09:11;;;;;;;17.03;8.13;;;;;;;19.69;60.37;100823.31;5261150;28;20102;-66
2022/08/14 06:11:42;;;;;;;11.17;6.93;;;;;;;19.69;60.43;100820.66;5273233;28;20358;-67
2022/08/14 06:14:14;;;;;;;15.03;7.73;;;;;;;19.72;60.71;100838.97;5273797;28;20056;-69
2022/08/14 06:16:46;;;;;;;12.43;7.53;;;;;;;19.85;59.83;100837.72;5271647;28;20028;-68
2022/08/14 06:19:17;;;;;;;15.10;7.90;;;;;;;19.82;60.45;100833.56;5260947;28;20093;-68
2022/08/14 06:21:49;;;;;;;11.67;7.97;;;;;;;19.88;60.60;100822.31;5274204;28;20111;-68
2022/08/14 06:24:20;;;;;;;14.53;7.70;;;;;;;19.98;59.80;100824.06;5273635;28;20020;-68
2022/08/14 06:26:51;;;;;;;11.70;8.33;;;;;;;20.02;60.23;100833.41;5274000;28;20099;-67
2022/08/14 06:29:23;;;;;;;13.43;9.17;;;;;;;20.12;59.34;100825.34;5273677;28;20023;-68
2022/08/14 06:31:56;;;;;;;11.07;7.13;;;;;;;20.12;59.95;100823.53;5272630;28;20070;-68
2022/08/14 06:34:27;;;;;;;9.17;8.20;;;;;;;20.21;59.81;100820.91;5272154;28;20027;-68
2022/08/14 06:36:58;;;;;;;14.20;7.40;;;;;;;20.30;58.97;100822.63;5273721;28;20024;-68
2022/08/14 06:39:29;;;;;;;9.30;7.77;;;;;;;20.24;59.48;100810.81;5273090;28;20178;-68
2022/08/14 06:42:01;;;;;;;12.03;8.00;;;;;;;20.40;59.59;100825.19;5274375;28;20021;-69
2022/08/14 06:44:33;;;;;;;14.20;7.47;;;;;;;20.49;59.06;100818.91;5273449;28;20036;-68
2022/08/14 06:47:04;;;;;;;12.77;8.07;;;;;;;20.55;58.68;100820.94;5273042;28;20476;-68
2022/08/14 06:49:36;;;;;;;13.70;8.53;;;;;;;20.64;58.05;100815.66;5273491;28;20024;-68
2022/08/14 06:52:07;;;;;;;8.00;7.20;;;;;;;20.69;57.60;100821.34;5273505;28;20162;-67
2022/08/14 06:54:39;;;;;;;9.73;7.63;;;;;;;20.72;58.08;100807.69;5272717;28;20016;-68
2022/08/14 06:57:11;;;;;;;12.27;7.57;;;;;;;20.77;57.77;100810.72;5260669;28;20028;-68
2022/08/14 06:59:42;;;;;;;15.20;7.77;;;;;;;20.90;57.90;100818.25;5252563;28;20370;-68
2022/08/14 07:07:53;;;;;;;11.43;6.80;;;;;;;21.15;56.44;100805.03;5262496;28;20066;-68
2022/08/14 07:10:25;;;;;;;8.67;7.17;;;;;;;21.30;56.62;100807.06;5269627;28;20087;-68
2022/08/14 07:12:56;;;;;;;10.43;6.43;;;;;;;21.33;55.63;100793.41;5273294;28;20029;-68
2022/08/14 07:15:27;;;;;;;13.77;7.20;;;;;;;21.42;55.52;100790.78;5272131;28;20016;-68
2022/08/14 07:17:59;;;;;;;7.67;6.90;;;;;;;21.68;55.36;100801.25;5271948;28;20025;-68
2022/08/14 07:20:31;;;;;;;10.97;6.87;;;;;;;21.80;54.60;100795.63;5273099;28;20020;-68
2022/08/14 07:23:05;;;;;;;7.23;5.90;;;;;;;22.06;53.58;100798.06;5273463;28;20020;-68
2022/08/14 07:25:38;;;;;;;7.68;5.88;;;;;;;22.30;53.07;100793.69;5258410;28;20032;-67
2022/08/14 07:28:14;;;;;;;7.03;6.03;;;;;;;22.60;52.65;100801.09;5274696;28;20115;-68
2022/08/14 07:30:46;;;;;;;11.20;5.97;;;;;;;22.94;50.65;100799.97;5276227;28;20077;-68
2022/08/14 07:33:18;;;;;;;9.67;6.30;;;;;;;23.28;49.88;100799.75;5277178;28;20508;-68
2022/08/14 07:35:50;;;;;;;8.77;5.13;;;;;;;23.46;49.55;100796.00;5276934;28;20029;-68
2022/08/14 07:38:22;;;;;;;7.75;6.30;;;;;;;24.22;48.35;100791.63;5276644;28;20542;-68
2022/08/14 07:40:54;;;;;;;11.20;5.75;;;;;;;24.47;46.80;100796.69;5277211;28;20020;-67
2022/08/14 07:43:25;;;;;;;7.82;4.75;;;;;;;24.97;45.47;100788.88;5277058;28;20345;-68
2022/08/14 07:45:56;;;;;;;10.68;5.15;;;;;;;25.82;44.45;100789.22;5276723;28;20805;-67
2022/08/14 07:48:28;;;;;;;8.93;5.20;;;;;;;26.31;42.80;100789.31;5277063;28;20040;-68
2022/08/14 07:51:00;;;;;;;6.93;4.72;;;;;;;26.69;42.50;100785.38;5271925;28;20029;-69
2022/08/14 07:53:32;;;;;;;8.70;4.75;;;;;;;27.09;41.68;100797.28;5257254;28;20023;-68
2022/08/14 07:56:03;;;;;;;5.38;4.55;;;;;;;27.86;39.70;100788.00;5260812;28;20029;-69
2022/08/14 07:58:36;;;;;;;11.65;4.82;;;;;;;28.83;38.71;100791.03;5255114;28;20415;-69
2022/08/14 08:01:08;;;;;;;7.93;4.72;;;;;;;28.94;38.20;100798.41;5254872;28;20117;-69
2022/08/14 08:03:41;;;;;;;6.43;4.45;;;;;;;29.47;37.11;100800.97;5254839;28;20123;-69
2022/08/14 08:06:15;;;;;;;6.72;3.95;;;;;;;30.29;35.88;100795.66;5255323;28;20033;-69
2022/08/14 08:08:49;;;;;;;7.20;4.72;;;;;;;30.56;34.87;100798.06;5256408;28;20017;-68
2022/08/14 08:11:21;;;;;;;6.50;4.43;;;;;;;30.59;34.79;100794.88;5254207;28;20082;-69
2022/08/14 08:13:54;;;;;;;5.10;3.80;;;;;;;31.35;32.76;100795.50;5254514;28;20474;-69
2022/08/14 08:16:27;;;;;;;5.45;4.18;;;;;;;31.75;32.84;100791.28;5255255;28;20071;-69
2022/08/14 08:18:59;;;;;;;5.78;3.63;;;;;;;30.81;33.52;100788.97;5256034;28;20025;-69
2022/08/14 08:21:30;;;;;;;5.15;4.03;;;;;;;30.47;33.84;100783.19;5252286;28;20086;-70
2022/08/14 08:24:01;;;;;;;7.95;3.83;;;;;;;29.97;34.52;100766.09;5252634;28;20066;-69
2022/08/14 08:26:33;;;;;;;8.73;4.55;;;;;;;29.75;34.69;100780.84;5254740;28;20410;-69
2022/08/14 08:29:05;;;;;;;8.55;3.83;;;;;;;29.41;36.38;100770.31;5256211;28;20070;-69
2022/08/14 08:31:49;;;;;;;6.18;4.28;;;;;;;29.55;36.50;100760.22;5264033;28;20082;-70
2022/08/14 08:34:21;;;;;;;11.25;4.20;;;;;;;29.19;35.93;100768.00;5264933;28;20078;-69
2022/08/14 08:36:52;;;;;;;7.43;3.92;;;;;;;29.17;36.19;100771.94;5253407;28;20025;-69
2022/08/14 08:39:23;;;;;;;9.27;4.40;;;;;;;28.88;36.60;100788.50;5252112;28;20120;-70
2022/08/14 08:41:55;;;;;;;9.32;4.43;;;;;;;28.75;35.77;100781.31;5248210;28;20028;-69
2022/08/14 08:44:31;;;;;;;8.18;3.85;;;;;;;28.96;35.57;100777.47;5260213;28;20389;-70
2022/08/14 08:47:06;;;;;;;10.32;4.30;;;;;;;28.59;36.07;100772.69;5261145;28;20037;-70
2022/08/14 08:49:41;;;;;;;7.35;4.30;;;;;;;28.74;36.80;100777.81;5271753;28;20032;-70
2022/08/14 08:52:12;;;;;;;8.48;3.70;;;;;;;28.57;36.05;100776.66;5271119;28;20063;-69
2022/08/14 08:54:52;;;;;;;5.75;3.65;;;;;;;28.61;36.21;100773.31;5267054;28;20028;-70
2022/08/14 08:57:24;;;;;;;8.50;4.53;;;;;;;28.79;35.47;100768.25;5272586;28;20473;-68
2022/08/14 08:59:56;;;;;;;5.90;4.22;;;;;;;29.01;34.62;100766.06;5273602;28;20085;-70
2022/08/14 09:02:28;;;;;;;7.82;3.97;;;;;;;28.60;34.95;100770.84;5268102;28;20017;-70
2022/08/14 09:05:03;;;;;;;6.10;3.33;;;;;;;28.73;36.18;100770.75;5289976;28;20041;-69
2022/08/14 09:07:34;;;;;;;4.63;3.67;;;;;;;28.88;36.12;100766.94;5265797;28;20071;-68
2022/08/14 09:10:05;;;;;;;9.20;3.67;;;;;;;28.72;36.13;100763.72;5261557;28;20044;-68
2022/08/14 09:12:38;;;;;;;7.80;4.07;;;;;;;28.78;35.97;100751.25;5261193;28;20024;-68
2022/08/14 09:15:10;;;;;;;8.45;4.20;;;;;;;28.94;35.99;100755.28;5261387;28;20382;-68
2022/08/14 09:17:42;;;;;;;8.10;3.63;;;;;;;29.00;38.08;100753.63;5268583;28;20071;-69
2022/08/14 09:20:14;;;;;;;11.15;3.63;;;;;;;28.97;36.37;100744.09;5256105;28;20018;-69
2022/08/14 09:22:46;;;;;;;8.10;4.60;;;;;;;28.91;36.73;100750.34;5255973;28;20431;-69
2022/08/14 09:25:18;;;;;;;4.17;3.50;;;;;;;29.37;36.06;100747.53;5253963;28;20131;-69
2022/08/14 09:27:49;;;;;;;6.95;4.15;;;;;;;29.13;37.72;100733.84;5253774;28;20119;-68
2022/08/14 09:30:21;;;;;;;5.53;3.88;;;;;;;29.14;37.36;100738.19;5252734;28;20029;-68
2022/08/14 09:33:10;;;;;;;10.23;3.85;;;;;;;29.44;37.04;100744.78;5266338;28;20079;-69
2022/08/14 09:35:55;;;;;;;6.78;3.53;;;;;;;29.33;34.61;100746.31;5255480;28;20025;-69
2022/08/14 09:38:50;;;;;;;9.38;3.83;;;;;;;29.29;34.47;100735.16;5250468;28;20370;-68
2022/08/14 09:41:30;;;;;;;10.77;4.10;;;;;;;29.14;36.29;100730.09;5269229;28;20024;-70
2022/08/14 09:44:05;;;;;;;6.43;4.10;;;;;;;29.41;35.56;100732.56;5265995;28;20040;-70
2022/08/14 09:46:37;;;;;;;4.45;3.55;;;;;;;29.32;33.37;100723.09;5252147;28;20032;-69
2022/08/14 09:49:08;;;;;;;6.18;3.50;;;;;;;29.45;34.58;100717.59;5269680;28;20817;-69
2022/08/14 09:51:42;;;;;;;9.02;3.72;;;;;;;29.59;35.49;100712.88;5271000;28;20035;-69
2022/08/14 09:54:15;;;;;;;4.95;3.65;;;;;;;29.99;33.04;100712.72;5252964;28;20083;-70
2022/08/14 09:56:49;;;;;;;6.18;2.88;;;;;;;30.00;33.53;100711.66;5257774;28;20051;-69
2022/08/14 09:59:24;;;;;;;11.93;4.10;;;;;;;29.74;34.59;100708.22;5259246;28;20569;-67
2022/08/14 10:01:56;;;;;;;8.02;4.13;;;;;;;30.08;35.40;100697.84;5256873;28;20029;-67
2022/08/14 10:04:27;;;;;;;6.75;4.07;;;;;;;30.31;34.56;100702.56;5247680;28;20041;-67
2022/08/14 10:07:00;;;;;;;7.68;3.90;;;;;;;30.15;34.49;100708.56;5264968;28;20114;-67
2022/08/14 10:09:31;;;;;;;5.53;4.10;;;;;;;30.06;33.62;100683.75;5249668;28;20442;-68
2022/08/14 10:12:05;;;;;;;9.32;3.60;;;;;;;30.19;33.52;100686.28;5253585;28;20315;-68
2022/08/14 10:14:37;;;;;;;4.40;3.38;;;;;;;30.48;33.77;100684.88;5252977;28;20028;-69
2022/08/14 10:17:09;;;;;;;12.15;4.45;;;;;;;30.49;35.14;100684.66;5252451;28;20021;-69
2022/08/14 10:19:47;;;;;;;6.97;3.50;;;;;;;30.42;34.43;100681.22;5271518;28;20107;-68
2022/08/14 10:22:29;;;;;;;11.10;3.72;;;;;;;30.51;34.03;100676.34;5246147;28;20020;-69
2022/08/14 10:25:13;;;;;;;6.88;3.67;;;;;;;30.73;34.14;100686.59;5258201;28;20027;-71
2022/08/14 10:27:55;;;;;;;6.22;4.45;;;;;;;30.68;34.53;100688.09;5272181;28;20061;-72
2022/08/14 10:30:35;;;;;;;7.18;4.22;;;;;;;30.56;34.60;100671.06;5267634;28;20020;-71
2022/08/14 10:33:06;;;;;;;8.70;3.95;;;;;;;31.15;33.24;100662.22;5246021;28;20076;-69
2022/08/14 10:35:40;;;;;;;7.32;4.38;;;;;;;30.98;33.31;100664.78;5261274;28;20161;-70
2022/08/14 10:38:11;;;;;;;5.72;3.80;;;;;;;31.01;34.32;100658.09;5272789;28;20016;-68
2022/08/14 10:40:43;;;;;;;7.00;4.20;;;;;;;31.59;33.54;100655.59;5264449;28;20119;-69
2022/08/14 10:43:19;;;;;;;6.32;4.43;;;;;;;31.17;33.87;100650.34;5261988;28;20579;-70
2022/08/14 10:45:53;;;;;;;7.32;4.28;;;;;;;31.50;33.46;100649.75;5262519;28;20023;-70
2022/08/14 10:48:25;;;;;;;6.88;3.67;;;;;;;31.83;33.13;100636.63;5239082;28;20025;-69
2022/08/14 10:50:58;;;;;;;9.95;4.05;;;;;;;32.47;32.07;100642.94;5248714;28;20020;-70
2022/08/14 10:53:36;;;;;;;4.78;3.85;;;;;;;32.31;32.79;100649.19;5249323;28;20033;-69
2022/08/14 10:56:09;;;;;;;4.88;3.60;;;;;;;32.79;30.67;100652.44;5252250;28;20104;-69
2022/08/14 10:58:41;;;;;;;6.13;4.05;;;;;;;32.73;31.11;100645.28;5247798;28;20021;-70
2022/08/14 11:01:13;;;;;;;5.72;3.40;;;;;;;32.78;28.83;100636.41;5245018;28;20029;-70
2022/08/14 11:03:44;;;;;;;6.82;3.25;;;;;;;32.88;29.22;100646.59;5252033;28;20056;-71
2022/08/14 11:06:21;;;;;;;4.72;3.13;;;;;;;32.90;29.19;100639.84;5251759;28;20069;-70
2022/08/14 11:08:53;;;;;;;5.38;3.60;;;;;;;32.88;29.93;100643.88;5251119;28;20036;-70
2022/08/14 11:11:26;;;;;;;6.05;3.08;;;;;;;33.02;28.85;100647.91;5264617;28;20401;-70
2022/08/14 11:13:57;;;;;;;8.80;3.83;;;;;;;33.55;27.29;100641.28;5255421;28;20029;-71
2022/08/14 11:16:29;;;;;;;7.00;3.65;;;;;;;33.17;28.65;100646.50;5249119;28;20033;-70
2022/08/14 11:19:02;;;;;;;6.80;3.53;;;;;;;33.34;28.98;100645.66;5246934;28;20035;-70
2022/08/14 11:21:33;;;;;;;;;;;;;;;33.90;29.67;100641.97;5250648;28;20025;-69
2022/08/14 11:24:10;;;;;;;3.97;3.30;;;;;;;33.46;28.53;100630.06;5252659;28;20387;-69
2022/08/14 11:26:43;;;;;;;5.90;3.42;;;;;;;33.80;27.92;100627.25;5249557;28;20036;-70
2022/08/14 11:29:15;;;;;;;5.07;3.28;;;;;;;33.40;28.84;100631.91;5250834;28;20025;-69
2022/08/14 11:31:47;;;;;;;5.05;3.35;;;;;;;33.54;29.25;100631.50;5249137;28;20013;-70
2022/08/14 11:34:18;;;;;;;6.43;3.60;;;;;;;33.38;28.86;100622.34;5252347;28;20079;-70
2022/08/14 11:36:50;;;;;;;6.03;3.30;;;;;;;33.67;28.42;100631.16;5248563;28;20025;-70
2022/08/14 11:39:22;;;;;;;7.43;3.20;;;;;;;33.88;26.70;100638.72;5243515;28;20040;-69
2022/08/14 11:41:56;;;;;;;6.93;2.95;;;;;;;33.63;27.16;100624.56;5249498;28;20010;-70
2022/08/14 11:44:28;;;;;;;6.22;3.10;;;;;;;33.93;27.91;100611.63;5246070;28;20112;-72
2022/08/14 11:47:02;;;;;;;5.37;3.43;;;;;;;33.78;27.43;100602.22;5245739;28;20036;-71
2022/08/14 11:49:33;;;;;;;3.63;2.97;;;;;;;33.67;27.98;100601.28;5246107;28;20025;-70
2022/08/14 11:52:05;;;;;;;6.53;3.13;;;;;;;33.64;27.97;100603.66;5247926;28;20090;-72
2022/08/14 11:54:37;;;;;;;7.50;3.95;;;;;;;33.69;27.99;100595.59;5250231;28;20031;-72
2022/08/14 11:57:18;;;;;;;3.78;3.13;;;;;;;34.06;28.73;100587.81;5249497;28;20153;-73
2022/08/14 11:59:59;;;;;;;4.35;2.90;;;;;;;33.75;28.02;100581.03;5250764;28;20565;-73
2022/08/14 12:02:31;;;;;;;4.13;2.88;;;;;;;33.56;26.84;100585.94;5246758;28;20024;-73
2022/08/14 12:05:03;;;;;;;8.25;2.90;;;;;;;33.50;26.97;100576.91;5246055;28;20401;-73
2022/08/14 12:07:34;;;;;;;4.95;3.00;;;;;;;33.80;26.60;100574.81;5246049;28;20021;-73
2022/08/14 12:10:05;;;;;;;3.58;2.60;;;;;;;33.66;26.30;100577.09;5249507;28;20063;-73
2022/08/14 12:12:37;;;;;;;4.75;3.05;;;;;;;33.83;26.35;100568.06;5248225;28;20061;-72